Time;durP1;ratioP1;P1;durP2;ratioP2;P2;SDS_P1;SDS_P2;PMS_P1;PMS_P2;Temp;Humidity;BMP_temperature;BMP_pressure;BME280_temperature;BME280_humidity;BME280_pressure;Samples;Min_cycle;Max_cycle;Signal;HPM_P1;HPM_P2
2022/05/19 00:01:57;;;;;;;2.75;2.20;;;;;;;19.48;63.81;101159.53;4973313;28;20013;-73
2022/05/19 00:04:22;;;;;;;3.38;2.22;;;;;;;19.51;64.00;101151.13;4983323;28;20310;-74
2022/05/19 00:06:47;;;;;;;2.78;2.58;;;;;;;19.55;64.21;101157.78;4978171;28;19998;-73
2022/05/19 00:09:13;;;;;;;3.88;2.40;;;;;;;19.49;64.59;101152.34;4985144;28;20843;-73
2022/05/19 00:11:38;;;;;;;3.28;2.17;;;;;;;19.43;64.85;101156.59;4996337;28;20070;-73
2022/05/19 00:14:04;;;;;;;5.50;2.45;;;;;;;19.44;65.23;101162.78;5001462;28;20032;-74
2022/05/19 00:16:29;;;;;;;2.92;2.30;;;;;;;19.31;65.70;101158.06;5011055;28;20013;-73
2022/05/19 00:18:55;;;;;;;3.60;2.40;;;;;;;19.25;65.73;101150.75;5032576;28;20065;-73
2022/05/19 00:21:21;;;;;;;6.13;2.70;;;;;;;19.25;65.50;101146.22;4999238;28;20017;-73
2022/05/19 00:23:46;;;;;;;4.97;2.50;;;;;;;19.30;65.37;101145.66;4997498;28;20109;-73
2022/05/19 00:26:12;;;;;;;3.97;2.53;;;;;;;19.17;65.73;101149.81;5016312;28;20942;-74
2022/05/19 00:28:37;;;;;;;2.60;2.40;;;;;;;19.17;65.86;101144.44;4965308;28;20029;-73
2022/05/19 00:31:03;;;;;;;5.63;2.60;;;;;;;19.24;65.60;101149.09;4979193;28;20029;-73
2022/05/19 00:33:28;;;;;;;2.50;2.30;;;;;;;19.25;65.58;101145.38;4980460;28;20923;-73
2022/05/19 00:35:53;;;;;;;2.78;2.45;;;;;;;19.19;65.45;101146.94;4975475;28;20018;-73
2022/05/19 00:38:19;;;;;;;6.90;2.38;;;;;;;19.24;65.12;101149.91;4968965;28;20030;-73
2022/05/19 00:40:46;;;;;;;4.47;2.40;;;;;;;19.25;64.39;101142.69;4975857;28;20060;-73
2022/05/19 00:43:11;;;;;;;2.30;2.10;;;;;;;19.29;63.93;101144.84;4958782;28;20059;-73
2022/05/19 00:45:51;;;;;;;2.50;2.20;;;;;;;19.35;63.85;101152.16;4982464;28;20005;-73
2022/05/19 00:48:19;;;;;;;6.88;2.40;;;;;;;19.42;63.78;101144.19;4959892;28;20041;-74
2022/05/19 00:50:58;;;;;;;3.67;2.17;;;;;;;19.43;63.93;101143.19;4976590;28;20029;-73
2022/05/19 00:53:29;;;;;;;3.80;2.30;;;;;;;19.40;64.17;101148.91;4994347;28;20218;-73
2022/05/19 00:55:54;;;;;;;2.83;2.63;;;;;;;19.33;63.40;101145.28;4994855;28;20098;-73
2022/05/19 00:58:26;;;;;;;2.28;2.10;;;;;;;19.39;63.46;101136.50;4979148;28;20776;-73
2022/05/19 01:00:51;;;;;;;2.35;2.03;;;;;;;19.30;63.80;101138.44;4977932;28;20009;-73
2022/05/19 01:03:17;;;;;;;4.32;2.35;;;;;;;19.29;62.97;101142.16;4963200;28;20017;-74
2022/05/19 01:05:51;;;;;;;3.65;2.35;;;;;;;19.44;62.57;101134.09;4977054;28;20022;-74
2022/05/19 01:08:28;;;;;;;2.25;2.15;;;;;;;19.39;63.13;101131.16;4980469;28;20105;-73
2022/05/19 01:10:54;;;;;;;2.30;2.20;;;;;;;19.47;62.81;101117.59;4959650;28;20244;-73
2022/05/19 01:13:19;;;;;;;3.33;2.15;;;;;;;19.47;62.04;101127.53;4981626;28;20078;-74
2022/05/19 01:15:48;;;;;;;4.63;2.20;;;;;;;19.48;61.49;101118.47;4979100;28;20390;-73
2022/05/19 01:18:13;;;;;;;3.75;2.20;;;;;;;19.48;61.34;101103.19;4957742;28;20072;-74
2022/05/19 01:20:38;;;;;;;2.35;2.15;;;;;;;19.56;61.05;101111.13;4968073;28;20033;-73
2022/05/19 01:23:11;;;;;;;2.80;2.30;;;;;;;19.61;60.39;101115.09;4955628;28;20022;-73
2022/05/19 01:25:55;;;;;;;2.20;2.10;;;;;;;19.67;60.37;101119.72;4960277;28;20104;-74
2022/05/19 01:28:21;;;;;;;2.42;2.15;;;;;;;19.72;59.55;101125.38;4977417;28;20061;-74
2022/05/19 01:30:46;;;;;;;4.03;1.90;;;;;;;19.76;59.67;101123.97;4987117;28;20044;-73
2022/05/19 01:33:11;;;;;;;2.47;2.10;;;;;;;19.78;59.78;101124.59;4967027;28;20295;-74
2022/05/19 01:35:37;;;;;;;2.20;2.10;;;;;;;19.81;59.68;101126.13;5000620;28;20812;-73
2022/05/19 01:38:06;;;;;;;3.00;2.03;;;;;;;19.84;59.19;101128.41;4973303;28;20010;-73
2022/05/19 01:40:50;;;;;;;2.60;2.25;;;;;;;19.86;59.14;101123.72;4959427;28;20156;-73
2022/05/19 01:43:29;;;;;;;2.13;1.98;;;;;;;19.83;58.97;101114.16;4941708;28;20005;-74
2022/05/19 01:46:13;;;;;;;2.05;1.90;;;;;;;19.78;58.96;101113.84;4965336;28;20865;-73
2022/05/19 01:48:54;;;;;;;2.08;1.98;;;;;;;19.79;58.66;101109.34;4965112;28;20041;-73
2022/05/19 01:51:34;;;;;;;2.58;2.00;;;;;;;19.81;58.99;101099.25;4957645;28;20088;-73
2022/05/19 01:54:23;;;;;;;2.13;2.00;;;;;;;19.85;58.65;101093.31;4966744;28;20107;-73
2022/05/19 01:56:52;;;;;;;3.47;2.20;;;;;;;19.81;58.39;101091.19;4991179;28;20382;-73
2022/05/19 02:00:05;;;;;;;2.33;2.13;;;;;;;19.81;58.26;101091.19;5005568;28;20028;-75
2022/05/19 02:02:39;;;;;;;4.32;2.40;;;;;;;19.79;58.73;101094.09;4895662;28;20439;-74
2022/05/19 02:05:07;;;;;;;3.25;2.08;;;;;;;19.81;58.29;101100.13;4972742;28;20046;-73
2022/05/19 02:07:33;;;;;;;2.70;2.00;;;;;;;19.79;58.22;101095.91;4974718;28;20297;-74
2022/05/19 02:10:00;;;;;;;2.40;2.20;;;;;;;19.85;57.68;101093.31;4932157;28;20008;-73
2022/05/19 02:12:27;;;;;;;2.42;2.00;;;;;;;19.87;57.69;101095.84;4957931;28;20006;-74
2022/05/19 02:14:55;;;;;;;1.98;1.85;;;;;;;19.90;57.44;101095.44;4967541;28;20514;-73
2022/05/19 02:17:21;;;;;;;4.68;2.20;;;;;;;19.87;57.79;101090.47;4977516;28;20052;-73
2022/05/19 02:19:49;;;;;;;2.50;2.15;;;;;;;19.83;57.66;101090.00;4978844;28;20247;-74
2022/05/19 02:22:18;;;;;;;2.10;2.00;;;;;;;19.81;58.07;101086.69;4974954;28;20190;-74
2022/05/19 02:24:50;;;;;;;2.17;2.08;;;;;;;19.86;57.76;101083.41;4980638;28;20116;-73
2022/05/19 02:27:42;;;;;;;3.28;2.30;;;;;;;19.87;57.77;101079.72;4959674;28;20813;-73
2022/05/19 02:30:10;;;;;;;2.00;1.90;;;;;;;19.86;57.81;101088.78;4975701;28;20918;-73
2022/05/19 02:32:35;;;;;;;2.33;2.08;;;;;;;19.86;57.31;101094.97;4960314;28;20040;-74
2022/05/19 02:35:02;;;;;;;3.05;2.00;;;;;;;19.86;57.71;101096.84;4976006;28;20383;-73
2022/05/19 02:37:27;;;;;;;4.35;2.20;;;;;;;19.83;57.78;101095.38;4953867;28;21099;-73
2022/05/19 02:39:52;;;;;;;2.35;2.15;;;;;;;19.85;57.95;101098.69;4940784;28;20014;-74
2022/05/19 02:42:18;;;;;;;3.15;2.33;;;;;;;19.83;58.03;101100.75;4973771;28;20014;-74
2022/05/19 02:44:43;;;;;;;3.50;2.30;;;;;;;19.86;57.67;101100.34;4966744;28;19999;-73
2022/05/19 02:47:09;;;;;;;2.75;1.92;;;;;;;19.85;56.95;101098.69;4976061;28;20028;-73
2022/05/19 02:49:34;;;;;;;3.50;2.17;;;;;;;19.81;57.60;101104.63;5014548;28;20509;-73
2022/05/19 02:51:59;;;;;;;2.47;2.13;;;;;;;19.74;57.73;101101.84;4994259;28;20032;-73
2022/05/19 02:54:25;;;;;;;2.45;2.13;;;;;;;19.68;58.24;101099.91;4964171;28;20093;-74
2022/05/19 02:56:50;;;;;;;2.42;2.22;;;;;;;19.64;58.64;101094.09;4981635;28;21007;-73
2022/05/19 02:59:15;;;;;;;4.28;2.25;;;;;;;19.62;58.48;101098.00;5000996;28;20009;-73
2022/05/19 03:01:41;;;;;;;2.75;2.28;;;;;;;19.67;58.83;101099.09;5000456;28;20413;-73
2022/05/19 03:04:07;;;;;;;2.38;2.22;;;;;;;19.65;57.92;101090.38;5003848;28;20006;-72
2022/05/19 03:06:32;;;;;;;5.47;2.35;;;;;;;19.67;58.55;101092.88;4986216;28;20075;-74
2022/05/19 03:08:57;;;;;;;3.63;2.17;;;;;;;19.72;58.25;101101.19;4985850;28;20043;-73
2022/05/19 03:11:23;;;;;;;2.60;2.30;;;;;;;19.66;58.13;101101.97;5004683;28;20018;-74
2022/05/19 03:13:48;;;;;;;2.45;2.28;;;;;;;19.67;58.10;101103.59;5000171;28;21184;-74
2022/05/19 03:16:14;;;;;;;2.55;2.30;;;;;;;19.61;57.87;101102.50;5002972;28;20017;-74
2022/05/19 03:18:39;;;;;;;3.28;2.30;;;;;;;19.67;58.31;101098.25;5015075;28;20782;-73
2022/05/19 03:21:04;;;;;;;2.50;2.30;;;;;;;19.63;58.09;101096.94;4991543;28;20025;-73
2022/05/19 03:23:30;;;;;;;2.40;2.30;;;;;;;19.62;57.68;101093.44;4991644;28;20344;-73
2022/05/19 03:25:55;;;;;;;2.40;2.30;;;;;;;19.64;57.99;101095.94;5008145;28;20044;-73
2022/05/19 03:28:21;;;;;;;3.33;2.10;;;;;;;19.62;58.22;101098.00;5006792;28;20057;-74
2022/05/19 03:30:46;;;;;;;3.33;2.40;;;;;;;19.58;58.04;101092.16;5023542;28;20018;-74
2022/05/19 03:33:11;;;;;;;3.03;2.30;;;;;;;19.64;57.26;101093.25;4985467;28;20041;-73
2022/05/19 03:35:37;;;;;;;2.45;2.30;;;;;;;19.69;57.40;101088.16;4966595;28;20083;-73
2022/05/19 03:38:02;;;;;;;2.60;2.40;;;;;;;19.63;57.57;101092.44;4995306;28;20448;-73
2022/05/19 03:40:28;;;;;;;2.33;2.22;;;;;;;19.57;57.84;101079.75;4955339;28;20060;-73
2022/05/19 03:42:53;;;;;;;2.55;2.30;;;;;;;19.59;57.70;101091.13;4992212;28;20449;-73
2022/05/19 03:45:19;;;;;;;3.63;2.40;;;;;;;19.54;57.85;101090.84;4962084;28;20010;-73
2022/05/19 03:47:44;;;;;;;3.05;2.17;;;;;;;19.49;58.14;101094.13;4971938;28;20030;-73
2022/05/19 03:50:09;;;;;;;2.20;2.10;;;;;;;19.50;58.30;101093.09;4991782;28;20052;-73
2022/05/19 03:52:38;;;;;;;2.22;2.13;;;;;;;19.45;58.41;101087.44;5002212;28;20124;-73
2022/05/19 03:55:03;;;;;;;3.63;2.17;;;;;;;19.45;58.05;101087.44;4974518;28;20485;-73
2022/05/19 03:57:29;;;;;;;2.38;2.25;;;;;;;19.50;58.01;101090.41;4963345;28;20419;-74
2022/05/19 03:59:55;;;;;;;4.10;2.50;;;;;;;19.50;57.95;101087.72;4998477;28;20392;-75
2022/05/19 04:02:20;;;;;;;2.33;2.10;;;;;;;19.55;57.80;101090.66;5014753;27;20016;-75
2022/05/19 04:04:45;;;;;;;3.17;2.03;;;;;;;19.61;57.53;101096.31;4977668;28;20836;-75
2022/05/19 04:07:11;;;;;;;2.35;2.15;;;;;;;19.63;57.26;101096.94;4976733;28;20036;-74
2022/05/19 04:09:36;;;;;;;2.78;2.30;;;;;;;19.56;57.91;101095.03;4941475;28;20119;-75
2022/05/19 04:12:02;;;;;;;5.68;2.30;;;;;;;19.59;57.52;101092.97;4935467;28;20014;-75
2022/05/19 04:14:28;;;;;;;3.40;2.40;;;;;;;19.61;57.62;101101.69;4948448;28;20410;-74
2022/05/19 04:16:53;;;;;;;5.60;2.50;;;;;;;19.67;57.53;101098.25;4961615;28;20292;-74
2022/05/19 04:19:19;;;;;;;2.25;2.13;;;;;;;19.67;57.65;101100.91;4993750;28;21036;-76
2022/05/19 04:21:44;;;;;;;2.67;2.08;;;;;;;19.67;57.44;101107.16;4978100;28;20931;-74
2022/05/19 04:24:10;;;;;;;2.50;2.30;;;;;;;19.72;56.96;101109.25;5014266;28;20032;-74
2022/05/19 04:26:36;;;;;;;2.47;2.28;;;;;;;19.73;57.57;101113.63;4977758;28;20006;-75
2022/05/19 04:29:01;;;;;;;2.67;2.40;;;;;;;19.74;57.36;101107.19;4976867;28;20466;-75
2022/05/19 04:31:26;;;;;;;2.55;2.20;;;;;;;19.76;57.83;101110.53;4982229;28;20700;-74
2022/05/19 04:33:52;;;;;;;2.72;2.30;;;;;;;19.78;57.23;101099.63;4991213;28;20678;-75
2022/05/19 04:36:17;;;;;;;3.13;2.20;;;;;;;19.76;57.09;101102.50;4976601;28;20025;-74
2022/05/19 04:38:42;;;;;;;2.30;2.20;;;;;;;19.78;57.68;101108.50;4958143;28;20012;-75
2022/05/19 04:41:08;;;;;;;2.65;2.20;;;;;;;19.88;56.84;101103.69;4974466;28;20261;-76
2022/05/19 04:43:33;;;;;;;6.38;2.15;;;;;;;19.87;57.36;101107.41;4975969;28;20024;-75
2022/05/19 04:45:58;;;;;;;3.30;2.08;;;;;;;19.86;57.38;101111.09;4946540;28;20022;-75
2022/05/19 04:48:24;;;;;;;4.63;2.50;;;;;;;19.96;56.34;101120.72;4952965;28;20932;-74
2022/05/19 04:50:53;;;;;;;2.95;2.30;;;;;;;19.98;56.87;101118.66;4945781;28;20339;-74
2022/05/19 04:53:19;;;;;;;2.92;2.42;;;;;;;19.99;57.01;101118.47;4968595;28;20326;-75
2022/05/19 04:55:45;;;;;;;3.30;2.25;;;;;;;19.97;57.35;101114.34;4927531;28;20014;-75
2022/05/19 04:58:10;;;;;;;3.83;2.35;;;;;;;19.94;57.53;101115.53;4958439;28;20304;-75
2022/05/19 05:00:35;;;;;;;2.40;2.20;;;;;;;19.99;56.74;101114.97;4954695;28;20021;-75
2022/05/19 05:03:01;;;;;;;3.63;2.10;;;;;;;19.98;57.26;101121.34;4955476;28;20974;-76
2022/05/19 05:05:26;;;;;;;2.58;2.38;;;;;;;19.99;57.64;101112.28;4941245;28;20022;-74
2022/05/19 05:07:51;;;;;;;5.53;2.10;;;;;;;20.03;57.12;101114.38;4939502;28;20028;-75
2022/05/19 05:10:17;;;;;;;2.42;2.22;;;;;;;20.03;57.56;101103.63;4989382;28;20032;-74
2022/05/19 05:12:42;;;;;;;5.97;2.10;;;;;;;20.08;56.84;101108.47;4957030;28;20736;-75
2022/05/19 05:15:08;;;;;;;2.47;2.30;;;;;;;20.12;56.87;101104.34;4952284;28;20074;-74
2022/05/19 05:17:34;;;;;;;2.47;2.10;;;;;;;20.17;56.69;101111.84;4928320;28;20050;-75
2022/05/19 05:19:59;;;;;;;2.67;2.13;;;;;;;20.25;56.76;101115.22;4937579;28;20849;-74
2022/05/19 05:22:24;;;;;;;3.53;2.28;;;;;;;20.37;56.18;101117.41;4936371;28;20014;-75
2022/05/19 05:24:50;;;;;;;4.10;2.33;;;;;;;20.33;56.65;101111.56;4954791;28;20026;-74
2022/05/19 05:27:15;;;;;;;2.10;2.00;;;;;;;20.45;56.30;101114.59;4971672;28;20017;-75
2022/05/19 05:29:40;;;;;;;2.35;2.17;;;;;;;20.54;56.18;101118.78;4975040;28;20411;-75
2022/05/19 05:32:06;;;;;;;4.03;2.40;;;;;;;20.63;56.08;101105.22;4991771;28;20026;-75
2022/05/19 05:34:31;;;;;;;2.50;2.30;;;;;;;20.73;55.09;101124.59;4957254;28;20335;-74
2022/05/19 05:36:57;;;;;;;6.32;2.10;;;;;;;20.83;55.39;101124.25;4975110;28;20041;-74
2022/05/19 05:39:22;;;;;;;3.35;2.35;;;;;;;20.97;55.42;101126.00;4974606;28;20034;-75
2022/05/19 05:41:47;;;;;;;2.03;1.90;;;;;;;21.07;54.46;101133.72;4974936;28;20062;-76
2022/05/19 05:44:13;;;;;;;2.63;2.17;;;;;;;21.10;54.66;101134.16;4953358;28;20321;-76
2022/05/19 05:46:38;;;;;;;9.70;2.60;;;;;;;21.14;54.35;101149.91;4943864;28;20516;-75
2022/05/19 05:49:04;;;;;;;2.88;2.22;;;;;;;21.26;53.43;101173.41;4989039;28;20045;-74
2022/05/19 05:51:29;;;;;;;2.50;2.40;;;;;;;21.30;53.08;101165.75;4993441;28;20347;-74
2022/05/19 05:53:54;;;;;;;3.33;2.47;;;;;;;21.40;52.65;101186.94;5009696;28;20363;-75
2022/05/19 05:56:20;;;;;;;2.53;2.33;;;;;;;21.54;52.07;101194.09;5013912;28;20021;-75
2022/05/19 05:58:45;;;;;;;3.47;2.50;;;;;;;21.53;52.20;101181.66;4963231;28;20024;-76
2022/05/19 06:01:11;;;;;;;2.17;1.92;;;;;;;21.56;53.03;101186.66;4995501;28;20008;-75
2022/05/19 06:03:37;;;;;;;2.40;2.20;;;;;;;21.59;52.74;101196.19;4997594;28;20762;-74
2022/05/19 06:06:02;;;;;;;2.33;2.05;;;;;;;21.69;51.64;101206.63;4979029;28;19997;-74
2022/05/19 06:08:28;;;;;;;2.42;2.33;;;;;;;21.60;52.60;101209.47;4979568;28;20530;-75
2022/05/19 06:10:53;;;;;;;3.80;2.30;;;;;;;21.42;53.47;101198.34;4973095;28;20384;-75
2022/05/19 06:13:19;;;;;;;2.45;2.25;;;;;;;21.41;53.10;101216.34;4977935;28;20022;-75
2022/05/19 06:15:44;;;;;;;3.75;1.98;;;;;;;21.30;52.88;101216.91;4978467;28;20082;-75
2022/05/19 06:18:10;;;;;;;2.55;2.20;;;;;;;21.28;54.37;101206.31;5000846;28;20132;-75
2022/05/19 06:20:35;;;;;;;3.05;2.25;;;;;;;21.28;53.69;101218.97;4978678;28;20960;-75
2022/05/19 06:23:01;;;;;;;2.28;2.17;;;;;;;21.31;52.96;101207.78;4964875;28;20821;-75
2022/05/19 06:25:26;;;;;;;6.28;2.22;;;;;;;21.39;54.03;101214.88;4967432;28;20164;-75
2022/05/19 06:27:52;;;;;;;5.38;2.38;;;;;;;21.53;53.40;101196.97;4984100;28;20500;-75
2022/05/19 06:30:17;;;;;;;4.60;2.38;;;;;;;21.64;54.34;101191.03;4984231;28;20328;-76
2022/05/19 06:32:43;;;;;;;2.22;2.13;;;;;;;21.78;54.68;101186.53;4986292;28;20017;-75
2022/05/19 06:35:09;;;;;;;5.63;2.13;;;;;;;21.90;55.02;101187.63;4971502;28;20807;-75
2022/05/19 06:37:35;;;;;;;2.20;2.10;;;;;;;22.13;53.30;101208.84;4967969;28;20021;-74
2022/05/19 06:40:00;;;;;;;2.40;2.20;;;;;;;22.20;52.74;101203.50;5026014;28;19993;-77
2022/05/19 06:42:26;;;;;;;3.65;2.20;;;;;;;22.13;52.65;101178.38;5007674;28;20001;-75
2022/05/19 06:44:51;;;;;;;2.40;2.17;;;;;;;22.22;52.54;101179.84;5015650;28;20002;-75
2022/05/19 06:47:17;;;;;;;2.80;2.60;;;;;;;22.22;52.96;101171.75;4991272;28;20424;-75
2022/05/19 06:49:43;;;;;;;2.17;2.08;;;;;;;22.25;52.38;101173.22;4971566;28;20041;-75
2022/05/19 06:52:16;;;;;;;2.30;2.03;;;;;;;22.41;51.96;101180.16;4971308;28;20876;-74
2022/05/19 06:54:45;;;;;;;2.38;2.20;;;;;;;22.50;50.91;101170.81;4974136;28;20048;-75
2022/05/19 06:57:10;;;;;;;2.30;2.08;;;;;;;22.58;51.84;101167.09;4970617;28;20090;-75
2022/05/19 06:59:36;;;;;;;5.57;2.35;;;;;;;22.64;52.67;101160.88;4991663;28;20029;-76
2022/05/19 07:02:02;;;;;;;4.75;2.30;;;;;;;22.60;52.44;101173.97;4971400;28;20101;-75
2022/05/19 07:04:27;;;;;;;3.88;1.98;;;;;;;22.56;51.57;101159.22;4971786;28;20881;-75
2022/05/19 07:06:52;;;;;;;2.08;1.98;;;;;;;22.54;52.25;101153.19;4970157;28;20010;-74
2022/05/19 07:09:18;;;;;;;3.42;2.30;;;;;;;22.44;51.50;101150.06;4972865;28;20033;-75
2022/05/19 07:11:44;;;;;;;2.35;2.20;;;;;;;22.43;52.36;101159.19;4972291;28;20075;-74
2022/05/19 07:14:09;;;;;;;3.20;2.00;;;;;;;22.46;51.77;101156.94;4977871;28;20081;-75
2022/05/19 07:16:35;;;;;;;3.03;2.10;;;;;;;22.48;52.54;101151.31;4968690;28;20365;-76
2022/05/19 07:21:45;;;;;;;2.40;2.20;;;;;;;22.47;52.91;101144.25;4961804;28;20584;-75
2022/05/19 07:24:17;;;;;;;2.58;2.10;;;;;;;22.55;50.91;101138.66;4976814;27;20701;-75
2022/05/19 07:26:44;;;;;;;2.67;1.97;;;;;;;22.64;51.10;101139.28;4997258;27;20502;-75
2022/05/19 07:29:09;;;;;;;3.00;1.88;;;;;;;22.80;51.54;101146.13;4994479;27;20040;-75
2022/05/19 07:31:35;;;;;;;2.22;2.03;;;;;;;23.03;51.89;101136.75;4974524;27;20323;-75
2022/05/19 07:34:00;;;;;;;3.28;2.00;;;;;;;23.13;52.18;101143.44;4992216;27;20097;-75
2022/05/19 07:36:25;;;;;;;3.33;2.30;;;;;;;23.21;50.80;101145.09;4975778;27;20009;-75
2022/05/19 07:38:53;;;;;;;2.00;1.90;;;;;;;23.20;49.35;101138.03;4993802;27;20489;-75
2022/05/19 07:41:18;;;;;;;1.98;1.88;;;;;;;23.33;49.95;101137.97;5010168;27;20028;-75
2022/05/19 07:43:43;;;;;;;2.33;2.08;;;;;;;23.37;49.28;101132.19;5008365;27;20110;-76
2022/05/19 07:46:10;;;;;;;2.45;1.92;;;;;;;23.34;49.89;101125.31;4975321;28;20017;-76
2022/05/19 07:48:36;;;;;;;2.20;2.10;;;;;;;23.54;48.46;101127.94;4974270;28;20144;-76
2022/05/19 07:51:02;;;;;;;3.03;2.10;;;;;;;23.73;48.61;101131.63;4992152;28;21083;-76
2022/05/19 07:53:28;;;;;;;2.35;2.25;;;;;;;23.89;49.30;101129.47;4991796;28;20554;-77
2022/05/19 07:55:53;;;;;;;2.22;2.13;;;;;;;23.91;48.94;101117.41;5010967;28;20067;-76
2022/05/19 07:58:19;;;;;;;3.90;2.22;;;;;;;23.93;48.80;101123.44;4976277;28;20059;-76
2022/05/19 08:00:46;;;;;;;2.85;2.05;;;;;;;24.21;49.59;101124.09;4969293;28;20620;-76
2022/05/19 08:03:12;;;;;;;2.10;2.00;;;;;;;24.25;47.87;101128.84;4973179;28;20020;-77
2022/05/19 08:05:37;;;;;;;3.53;2.25;;;;;;;24.39;47.26;101126.06;5009879;28;20009;-77
2022/05/19 08:08:02;;;;;;;4.35;2.70;;;;;;;24.73;47.59;101123.94;4990723;28;20045;-76
2022/05/19 08:10:28;;;;;;;5.22;2.20;;;;;;;24.87;48.31;101133.59;4986989;28;20375;-76
2022/05/19 08:15:39;;;;;;;2.10;2.00;;;;;;;24.90;47.41;101119.59;4975506;28;20483;-77
2022/05/19 08:18:10;;;;;;;2.75;2.28;;;;;;;24.84;47.23;101121.31;4982292;28;20912;-77
2022/05/19 08:20:39;;;;;;;2.15;1.95;;;;;;;24.82;47.75;101119.91;4988739;28;20020;-75
2022/05/19 08:23:05;;;;;;;4.55;2.17;;;;;;;24.71;48.60;101120.63;5008999;28;20478;-77
2022/05/19 08:25:30;;;;;;;2.30;2.20;;;;;;;24.81;47.20;101120.94;4990824;27;20263;-77
2022/05/19 08:27:56;;;;;;;2.90;2.25;;;;;;;24.85;48.16;101120.28;5007381;28;20384;-76
2022/05/19 08:30:22;;;;;;;2.78;2.40;;;;;;;24.86;47.41;101127.34;4990680;27;20033;-77
2022/05/19 08:32:47;;;;;;;3.17;2.00;;;;;;;24.79;46.25;101123.03;5007968;28;20974;-77
2022/05/19 08:35:13;;;;;;;5.72;2.00;;;;;;;25.09;48.91;101116.94;4989903;27;20095;-77
2022/05/19 08:37:38;;;;;;;2.38;2.10;;;;;;;25.25;48.27;101108.19;4988453;28;20010;-76
2022/05/19 08:40:04;;;;;;;2.63;1.90;;;;;;;25.29;47.64;101104.00;4972887;27;20033;-76
2022/05/19 08:42:31;;;;;;;2.70;2.10;;;;;;;25.51;45.82;101107.09;5008264;28;20420;-76
2022/05/19 08:44:56;;;;;;;3.63;1.98;;;;;;;25.46;45.63;101111.53;4980568;28;20380;-76
2022/05/19 08:47:28;;;;;;;2.25;2.15;;;;;;;25.60;45.33;101113.03;4963424;28;20026;-76
2022/05/19 08:49:58;;;;;;;2.35;2.15;;;;;;;25.63;45.25;101111.75;4976741;28;20033;-76
2022/05/19 08:52:25;;;;;;;3.85;1.98;;;;;;;25.69;45.93;101110.81;4970151;28;20456;-76
2022/05/19 08:54:53;;;;;;;2.35;2.10;;;;;;;25.86;45.90;101116.44;4971658;28;20473;-76
2022/05/19 08:57:36;;;;;;;3.40;2.40;;;;;;;25.68;45.86;101109.19;4971293;28;20405;-76
2022/05/19 09:00:06;;;;;;;2.90;2.20;;;;;;;25.68;45.47;101114.59;4956168;28;20810;-77
2022/05/19 09:02:41;;;;;;;3.45;2.10;;;;;;;25.60;46.43;101101.38;4989486;28;20944;-76
2022/05/19 09:05:36;;;;;;;3.97;2.17;;;;;;;25.50;47.32;101093.78;4972180;28;20016;-76
2022/05/19 09:08:16;;;;;;;4.43;2.20;;;;;;;25.54;46.96;101084.13;4984412;28;20321;-75
2022/05/19 09:11:09;;;;;;;4.88;2.20;;;;;;;25.80;47.01;101093.78;4973256;28;20022;-77
2022/05/19 09:13:37;;;;;;;5.57;2.42;;;;;;;26.01;44.76;101092.47;4990532;28;20520;-76
2022/05/19 09:16:30;;;;;;;2.58;2.33;;;;;;;26.30;44.83;101080.97;4978124;28;20029;-76
2022/05/19 09:19:06;;;;;;;4.57;2.30;;;;;;;26.57;44.03;101084.91;4978908;28;20106;-77
2022/05/19 09:21:33;;;;;;;3.53;2.40;;;;;;;26.72;43.53;101084.47;4977098;28;20132;-77
2022/05/19 09:23:58;;;;;;;3.03;2.05;;;;;;;26.90;44.86;101088.09;4995653;28;20086;-77
2022/05/19 09:26:42;;;;;;;3.22;2.17;;;;;;;27.20;42.26;101084.41;4958277;28;20025;-77
2022/05/19 09:29:13;;;;;;;4.35;2.15;;;;;;;27.07;42.03;101072.75;5004039;28;20033;-76
2022/05/19 09:31:53;;;;;;;2.80;2.40;;;;;;;26.89;44.34;101075.59;4977126;28;20017;-77
2022/05/19 09:34:19;;;;;;;2.50;2.30;;;;;;;27.00;44.26;101068.50;5011019;28;20752;-77
2022/05/19 09:37:00;;;;;;;4.75;2.45;;;;;;;27.38;43.62;101067.13;4978358;28;20091;-77
2022/05/19 09:39:25;;;;;;;5.93;2.58;;;;;;;27.66;42.73;101063.59;5009984;28;20111;-76
2022/05/19 09:41:51;;;;;;;2.85;2.33;;;;;;;28.02;43.52;101066.16;4992112;28;20086;-77
2022/05/19 09:44:22;;;;;;;2.58;2.38;;;;;;;28.03;42.91;101052.31;4971263;28;20124;-77
2022/05/19 09:46:50;;;;;;;4.15;2.40;;;;;;;28.30;44.06;101062.53;4972998;28;20025;-77
2022/05/19 09:49:38;;;;;;;4.93;2.28;;;;;;;28.50;41.05;101053.03;4955358;28;20034;-78
2022/05/19 09:52:04;;;;;;;2.45;2.25;;;;;;;28.58;41.10;101055.34;4949789;28;20420;-77
2022/05/19 09:54:31;;;;;;;2.50;1.90;;;;;;;28.62;41.68;101056.53;4988889;28;20062;-77
2022/05/19 09:57:02;;;;;;;2.20;2.10;;;;;;;29.17;41.67;101046.63;4960858;28;20010;-77
2022/05/19 09:59:47;;;;;;;2.20;2.10;;;;;;;29.04;40.23;101052.47;4975066;28;20029;-77
2022/05/19 10:02:25;;;;;;;3.55;2.38;;;;;;;29.18;39.44;101034.66;4990627;28;20587;-77
2022/05/19 10:04:55;;;;;;;3.85;2.33;;;;;;;28.87;38.92;101036.19;5009817;28;20787;-77
2022/05/19 10:07:30;;;;;;;2.53;2.33;;;;;;;28.74;39.22;101035.47;4974314;28;20860;-77
2022/05/19 10:09:56;;;;;;;2.00;1.90;;;;;;;28.17;41.03;101041.94;4954140;28;20102;-76
2022/05/19 10:12:28;;;;;;;3.30;2.00;;;;;;;28.17;39.78;101031.03;4934217;28;20422;-77
2022/05/19 10:15:01;;;;;;;2.53;2.30;;;;;;;28.39;40.62;101033.84;4947268;28;21046;-77
2022/05/19 10:17:40;;;;;;;2.80;2.60;;;;;;;28.87;37.30;101030.72;4969133;27;20017;-76
2022/05/19 10:20:24;;;;;;;2.40;2.05;;;;;;;29.22;38.41;101013.16;4993444;27;20629;-77
2022/05/19 10:22:57;;;;;;;2.30;2.20;;;;;;;29.87;37.41;101010.56;4997544;27;20005;-77
2022/05/19 10:25:46;;;;;;;3.55;2.10;;;;;;;30.30;36.09;101006.00;4978017;27;20015;-76
2022/05/19 10:31:49;;;;;;;2.70;2.40;;;;;;;31.17;35.85;101014.66;5012347;27;20869;-77
2022/05/19 10:34:28;;;;;;;4.03;2.20;;;;;;;31.50;34.47;101001.63;5011348;27;20052;-79
2022/05/19 10:37:03;;;;;;;5.85;2.30;;;;;;;32.02;33.03;101012.59;4993274;27;20023;-77
2022/05/19 10:39:32;;;;;;;2.10;2.00;;;;;;;31.92;33.04;101004.41;5003497;28;21001;-77
2022/05/19 10:42:13;;;;;;;2.60;2.10;;;;;;;32.14;33.48;101012.38;4972922;28;20021;-78
2022/05/19 10:45:10;;;;;;;1.98;1.88;;;;;;;32.40;33.84;101004.91;4939488;28;20421;-77
2022/05/19 10:47:54;;;;;;;5.15;1.83;;;;;;;31.58;33.80;100999.47;4979755;28;20014;-77
2022/05/19 10:50:35;;;;;;;2.28;2.08;;;;;;;30.46;34.20;100977.72;4995595;28;20051;-77
2022/05/19 10:53:19;;;;;;;1.90;1.80;;;;;;;30.03;35.86;100965.97;4960808;28;20092;-78
2022/05/19 10:56:06;;;;;;;3.72;2.20;;;;;;;29.92;36.50;100962.34;5009384;28;20052;-77
2022/05/19 10:58:57;;;;;;;2.95;2.10;;;;;;;30.00;35.13;100947.38;5010157;28;20001;-77
2022/05/19 11:01:42;;;;;;;3.03;1.92;;;;;;;30.51;35.52;100946.88;4953098;28;20133;-77
2022/05/19 11:04:27;;;;;;;2.58;2.20;;;;;;;30.83;34.51;100956.84;4969401;28;20006;-77
2022/05/19 11:07:18;;;;;;;2.33;2.03;;;;;;;31.12;34.65;100951.78;4985365;28;20006;-77
2022/05/19 11:09:57;;;;;;;1.77;1.67;;;;;;;30.41;35.35;100958.53;4959380;28;20048;-77
2022/05/19 11:12:27;;;;;;;2.92;1.90;;;;;;;30.51;34.75;100940.63;4982971;28;20757;-77
2022/05/19 11:15:30;;;;;;;6.00;2.38;;;;;;;31.25;34.23;100952.34;5008147;28;20783;-76
2022/05/19 11:18:33;;;;;;;2.22;2.03;;;;;;;31.46;33.33;100958.66;5007643;27;20009;-76
2022/05/19 11:21:21;;;;;;;1.92;1.83;;;;;;;31.58;34.12;100952.97;5001599;28;20014;-76
2022/05/19 11:23:53;;;;;;;2.50;2.30;;;;;;;32.10;34.27;100954.56;4963142;28;20883;-76
2022/05/19 11:26:31;;;;;;;2.42;2.13;;;;;;;32.30;31.73;100959.19;4965854;28;20307;-77
2022/05/19 11:29:06;;;;;;;2.60;2.40;;;;;;;32.41;33.06;100949.03;4990111;28;20541;-77
2022/05/19 11:31:50;;;;;;;2.05;1.95;;;;;;;31.61;34.05;100958.69;4971835;28;20030;-77
2022/05/19 11:34:20;;;;;;;5.40;1.90;;;;;;;30.73;34.95;100971.31;4992472;28;20010;-76
2022/05/19 11:36:50;;;;;;;2.55;2.30;;;;;;;30.77;35.10;100963.38;4987344;28;20013;-77
2022/05/19 11:40:00;;;;;;;1.90;1.75;;;;;;;30.63;36.99;100965.81;4956821;28;20046;-77
2022/05/19 11:42:52;;;;;;;3.25;2.03;;;;;;;30.12;36.24;100966.28;4972339;28;20815;-76
2022/05/19 11:45:29;;;;;;;2.08;1.98;;;;;;;30.28;36.15;100978.16;5002427;28;20012;-76